sensor_id;sensor_type;location;lat;lon;timestamp;P1;durP1;ratioP1;P2;durP2;ratioP2
10007;SDS011;5043;41.766;26.204;2023-06-14T00:00:17;5.20;;;3.97;;
10007;SDS011;5043;41.766;26.204;2023-06-14T00:02:42;7.18;;;4.18;;
10007;SDS011;5043;41.766;26.204;2023-06-14T00:05:08;5.68;;;4.60;;
10007;SDS011;5043;41.766;26.204;2023-06-14T00:07:34;5.95;;;4.40;;
10007;SDS011;5043;41.766;26.204;2023-06-14T00:10:00;7.00;;;4.13;;
10007;SDS011;5043;41.766;26.204;2023-06-14T00:12:27;10.73;;;4.53;;
10007;SDS011;5043;41.766;26.204;2023-06-14T00:14:53;6.70;;;4.03;;
10007;SDS011;5043;41.766;26.204;2023-06-14T00:17:18;7.38;;;4.70;;
10007;SDS011;5043;41.766;26.204;2023-06-14T00:19:43;7.40;;;4.45;;
10007;SDS011;5043;41.766;26.204;2023-06-14T00:22:09;9.70;;;4.05;;
10007;SDS011;5043;41.766;26.204;2023-06-14T00:24:34;7.35;;;4.28;;
10007;SDS011;5043;41.766;26.204;2023-06-14T00:27:00;7.30;;;4.10;;
10007;SDS011;5043;41.766;26.204;2023-06-14T00:29:25;6.43;;;4.72;;
10007;SDS011;5043;41.766;26.204;2023-06-14T00:31:51;8.13;;;4.43;;
10007;SDS011;5043;41.766;26.204;2023-06-14T00:34:16;6.57;;;4.22;;
10007;SDS011;5043;41.766;26.204;2023-06-14T00:36:41;7.32;;;4.05;;
10007;SDS011;5043;41.766;26.204;2023-06-14T00:39:07;8.07;;;5.20;;
10007;SDS011;5043;41.766;26.204;2023-06-14T00:41:32;8.73;;;4.40;;
10007;SDS011;5043;41.766;26.204;2023-06-14T00:43:58;5.95;;;4.00;;
10007;SDS011;5043;41.766;26.204;2023-06-14T00:46:24;6.45;;;4.13;;
10007;SDS011;5043;41.766;26.204;2023-06-14T00:48:50;4.68;;;4.15;;
10007;SDS011;5043;41.766;26.204;2023-06-14T00:51:16;8.57;;;4.60;;
10007;SDS011;5043;41.766;26.204;2023-06-14T00:53:41;12.23;;;4.28;;
10007;SDS011;5043;41.766;26.204;2023-06-14T00:56:11;5.40;;;4.20;;
10007;SDS011;5043;41.766;26.204;2023-06-14T00:58:38;9.30;;;4.30;;
10007;SDS011;5043;41.766;26.204;2023-06-14T01:01:03;5.13;;;4.35;;
10007;SDS011;5043;41.766;26.204;2023-06-14T01:03:29;4.30;;;3.90;;
10007;SDS011;5043;41.766;26.204;2023-06-14T01:09:46;5.28;;;4.50;;
10007;SDS011;5043;41.766;26.204;2023-06-14T01:15:00;10.82;;;4.18;;
10007;SDS011;5043;41.766;26.204;2023-06-14T01:17:27;4.18;;;3.78;;
10007;SDS011;5043;41.766;26.204;2023-06-14T01:19:57;5.85;;;4.25;;
10007;SDS011;5043;41.766;26.204;2023-06-14T01:22:35;6.05;;;4.35;;
10007;SDS011;5043;41.766;26.204;2023-06-14T01:25:01;5.50;;;3.97;;
10007;SDS011;5043;41.766;26.204;2023-06-14T01:27:26;6.70;;;3.92;;
10007;SDS011;5043;41.766;26.204;2023-06-14T01:29:54;13.40;;;4.10;;
10007;SDS011;5043;41.766;26.204;2023-06-14T01:34:51;6.93;;;3.92;;
10007;SDS011;5043;41.766;26.204;2023-06-14T01:37:16;4.45;;;4.07;;
10007;SDS011;5043;41.766;26.204;2023-06-14T01:39:43;5.15;;;4.00;;
10007;SDS011;5043;41.766;26.204;2023-06-14T01:42:10;4.70;;;4.25;;
10007;SDS011;5043;41.766;26.204;2023-06-14T01:44:37;6.00;;;3.88;;
10007;SDS011;5043;41.766;26.204;2023-06-14T01:47:03;6.15;;;4.35;;
10007;SDS011;5043;41.766;26.204;2023-06-14T01:49:28;7.30;;;4.10;;
10007;SDS011;5043;41.766;26.204;2023-06-14T01:51:54;7.07;;;4.28;;
10007;SDS011;5043;41.766;26.204;2023-06-14T01:54:19;6.90;;;3.90;;
10007;SDS011;5043;41.766;26.204;2023-06-14T01:56:46;4.75;;;3.75;;
10007;SDS011;5043;41.766;26.204;2023-06-14T01:59:12;9.43;;;3.83;;
10007;SDS011;5043;41.766;26.204;2023-06-14T02:01:37;6.47;;;4.25;;
10007;SDS011;5043;41.766;26.204;2023-06-14T02:04:03;7.57;;;3.80;;
10007;SDS011;5043;41.766;26.204;2023-06-14T02:06:28;7.28;;;4.55;;
10007;SDS011;5043;41.766;26.204;2023-06-14T02:08:54;10.80;;;4.47;;
10007;SDS011;5043;41.766;26.204;2023-06-14T02:11:19;7.47;;;3.83;;
10007;SDS011;5043;41.766;26.204;2023-06-14T02:13:44;6.18;;;4.43;;
10007;SDS011;5043;41.766;26.204;2023-06-14T02:16:10;12.23;;;4.15;;
10007;SDS011;5043;41.766;26.204;2023-06-14T02:18:36;5.15;;;4.03;;
10007;SDS011;5043;41.766;26.204;2023-06-14T02:21:01;10.43;;;4.30;;
10007;SDS011;5043;41.766;26.204;2023-06-14T02:23:27;6.25;;;4.20;;
10007;SDS011;5043;41.766;26.204;2023-06-14T02:25:52;5.07;;;4.20;;
10007;SDS011;5043;41.766;26.204;2023-06-14T02:28:17;4.50;;;4.07;;
10007;SDS011;5043;41.766;26.204;2023-06-14T02:30:43;5.70;;;4.32;;
10007;SDS011;5043;41.766;26.204;2023-06-14T02:33:08;8.57;;;4.43;;
10007;SDS011;5043;41.766;26.204;2023-06-14T02:35:38;4.90;;;4.10;;
10007;SDS011;5043;41.766;26.204;2023-06-14T02:38:03;7.82;;;5.32;;
10007;SDS011;5043;41.766;26.204;2023-06-14T02:40:28;7.40;;;4.55;;
10007;SDS011;5043;41.766;26.204;2023-06-14T02:42:54;8.40;;;5.13;;
10007;SDS011;5043;41.766;26.204;2023-06-14T02:45:19;7.78;;;5.22;;
10007;SDS011;5043;41.766;26.204;2023-06-14T02:47:46;8.65;;;5.10;;
10007;SDS011;5043;41.766;26.204;2023-06-14T02:50:11;6.70;;;5.47;;
10007;SDS011;5043;41.766;26.204;2023-06-14T02:52:37;6.20;;;5.60;;
10007;SDS011;5043;41.766;26.204;2023-06-14T02:55:03;5.82;;;5.32;;
10007;SDS011;5043;41.766;26.204;2023-06-14T02:57:28;9.35;;;5.28;;
10007;SDS011;5043;41.766;26.204;2023-06-14T02:59:54;9.80;;;5.38;;
10007;SDS011;5043;41.766;26.204;2023-06-14T03:02:20;12.40;;;5.13;;
10007;SDS011;5043;41.766;26.204;2023-06-14T03:04:45;8.63;;;5.20;;
10007;SDS011;5043;41.766;26.204;2023-06-14T03:07:11;4.93;;;4.32;;
10007;SDS011;5043;41.766;26.204;2023-06-14T03:09:37;5.90;;;5.30;;
10007;SDS011;5043;41.766;26.204;2023-06-14T03:12:04;9.45;;;5.78;;
10007;SDS011;5043;41.766;26.204;2023-06-14T03:14:32;10.20;;;6.18;;
10007;SDS011;5043;41.766;26.204;2023-06-14T03:16:57;6.97;;;5.45;;
10007;SDS011;5043;41.766;26.204;2023-06-14T03:19:24;8.15;;;5.25;;
10007;SDS011;5043;41.766;26.204;2023-06-14T03:21:50;10.30;;;5.43;;
10007;SDS011;5043;41.766;26.204;2023-06-14T03:24:15;6.50;;;5.85;;
10007;SDS011;5043;41.766;26.204;2023-06-14T03:26:44;5.40;;;4.90;;
10007;SDS011;5043;41.766;26.204;2023-06-14T03:29:12;9.80;;;4.68;;
10007;SDS011;5043;41.766;26.204;2023-06-14T03:31:41;6.13;;;4.88;;
10007;SDS011;5043;41.766;26.204;2023-06-14T03:34:22;8.57;;;5.55;;
10007;SDS011;5043;41.766;26.204;2023-06-14T03:36:47;7.20;;;4.93;;
10007;SDS011;5043;41.766;26.204;2023-06-14T03:39:12;7.15;;;4.85;;
10007;SDS011;5043;41.766;26.204;2023-06-14T03:41:38;7.68;;;4.63;;
10007;SDS011;5043;41.766;26.204;2023-06-14T03:44:04;6.68;;;4.65;;
10007;SDS011;5043;41.766;26.204;2023-06-14T03:46:29;5.68;;;4.38;;
10007;SDS011;5043;41.766;26.204;2023-06-14T03:48:55;12.43;;;3.78;;
10007;SDS011;5043;41.766;26.204;2023-06-14T03:51:20;6.57;;;4.43;;
10007;SDS011;5043;41.766;26.204;2023-06-14T03:53:47;5.38;;;4.28;;
10007;SDS011;5043;41.766;26.204;2023-06-14T03:56:12;7.82;;;4.20;;
10007;SDS011;5043;41.766;26.204;2023-06-14T03:58:38;9.40;;;4.53;;
10007;SDS011;5043;41.766;26.204;2023-06-14T04:01:03;7.05;;;4.72;;
10007;SDS011;5043;41.766;26.204;2023-06-14T04:03:29;11.30;;;4.50;;
10007;SDS011;5043;41.766;26.204;2023-06-14T04:05:54;6.38;;;4.30;;
10007;SDS011;5043;41.766;26.204;2023-06-14T04:08:21;6.78;;;4.30;;
10007;SDS011;5043;41.766;26.204;2023-06-14T04:10:47;7.38;;;4.57;;
10007;SDS011;5043;41.766;26.204;2023-06-14T04:13:12;4.40;;;4.05;;
10007;SDS011;5043;41.766;26.204;2023-06-14T04:15:38;4.97;;;4.05;;
10007;SDS011;5043;41.766;26.204;2023-06-14T04:18:07;4.75;;;4.25;;
10007;SDS011;5043;41.766;26.204;2023-06-14T04:20:33;7.90;;;4.43;;
10007;SDS011;5043;41.766;26.204;2023-06-14T04:23:10;10.27;;;4.30;;
10007;SDS011;5043;41.766;26.204;2023-06-14T04:25:37;7.72;;;4.63;;
10007;SDS011;5043;41.766;26.204;2023-06-14T04:28:02;4.68;;;3.60;;
10007;SDS011;5043;41.766;26.204;2023-06-14T04:30:28;6.35;;;4.07;;
10007;SDS011;5043;41.766;26.204;2023-06-14T04:32:56;4.30;;;3.85;;
10007;SDS011;5043;41.766;26.204;2023-06-14T04:35:22;4.85;;;4.20;;
10007;SDS011;5043;41.766;26.204;2023-06-14T04:37:52;4.93;;;4.35;;
10007;SDS011;5043;41.766;26.204;2023-06-14T04:40:18;8.27;;;4.13;;
10007;SDS011;5043;41.766;26.204;2023-06-14T04:42:44;4.00;;;3.70;;
10007;SDS011;5043;41.766;26.204;2023-06-14T04:45:09;7.78;;;3.97;;
10007;SDS011;5043;41.766;26.204;2023-06-14T04:47:36;5.97;;;4.00;;
10007;SDS011;5043;41.766;26.204;2023-06-14T04:50:02;4.20;;;3.80;;
10007;SDS011;5043;41.766;26.204;2023-06-14T04:52:28;5.07;;;4.20;;
10007;SDS011;5043;41.766;26.204;2023-06-14T04:54:55;4.93;;;4.43;;
10007;SDS011;5043;41.766;26.204;2023-06-14T04:57:21;8.50;;;5.00;;
10007;SDS011;5043;41.766;26.204;2023-06-14T04:59:47;7.47;;;5.20;;
10007;SDS011;5043;41.766;26.204;2023-06-14T05:02:13;8.02;;;5.13;;
10007;SDS011;5043;41.766;26.204;2023-06-14T05:04:39;10.05;;;5.40;;
10007;SDS011;5043;41.766;26.204;2023-06-14T05:07:08;7.43;;;4.55;;
10007;SDS011;5043;41.766;26.204;2023-06-14T05:09:37;9.65;;;5.05;;
10007;SDS011;5043;41.766;26.204;2023-06-14T05:12:03;6.97;;;4.65;;
10007;SDS011;5043;41.766;26.204;2023-06-14T05:14:28;6.35;;;4.40;;
10007;SDS011;5043;41.766;26.204;2023-06-14T05:16:54;9.73;;;4.55;;
10007;SDS011;5043;41.766;26.204;2023-06-14T05:19:20;5.43;;;4.78;;
10007;SDS011;5043;41.766;26.204;2023-06-14T05:21:47;11.32;;;5.03;;
10007;SDS011;5043;41.766;26.204;2023-06-14T05:24:13;6.68;;;4.93;;
10007;SDS011;5043;41.766;26.204;2023-06-14T05:26:39;8.77;;;4.82;;
10007;SDS011;5043;41.766;26.204;2023-06-14T05:29:05;6.72;;;4.65;;
10007;SDS011;5043;41.766;26.204;2023-06-14T05:31:30;8.30;;;5.00;;
10007;SDS011;5043;41.766;26.204;2023-06-14T05:33:56;5.63;;;4.20;;
10007;SDS011;5043;41.766;26.204;2023-06-14T05:36:22;6.45;;;4.60;;
10007;SDS011;5043;41.766;26.204;2023-06-14T05:38:47;6.85;;;4.55;;
10007;SDS011;5043;41.766;26.204;2023-06-14T05:41:13;5.25;;;4.75;;
10007;SDS011;5043;41.766;26.204;2023-06-14T05:43:38;9.20;;;5.57;;
10007;SDS011;5043;41.766;26.204;2023-06-14T05:46:04;5.60;;;5.07;;
10007;SDS011;5043;41.766;26.204;2023-06-14T05:48:32;6.13;;;4.70;;
10007;SDS011;5043;41.766;26.204;2023-06-14T05:51:06;5.00;;;4.50;;
10007;SDS011;5043;41.766;26.204;2023-06-14T05:53:34;12.48;;;4.78;;
10007;SDS011;5043;41.766;26.204;2023-06-14T05:56:02;7.47;;;4.65;;
10007;SDS011;5043;41.766;26.204;2023-06-14T05:58:27;5.75;;;3.80;;
10007;SDS011;5043;41.766;26.204;2023-06-14T06:00:53;5.35;;;4.13;;
10007;SDS011;5043;41.766;26.204;2023-06-14T06:03:18;9.27;;;4.18;;
10007;SDS011;5043;41.766;26.204;2023-06-14T06:05:44;6.60;;;4.03;;
10007;SDS011;5043;41.766;26.204;2023-06-14T06:08:09;3.70;;;3.40;;
10007;SDS011;5043;41.766;26.204;2023-06-14T06:10:35;6.18;;;4.18;;
10007;SDS011;5043;41.766;26.204;2023-06-14T06:13:00;3.83;;;3.17;;
10007;SDS011;5043;41.766;26.204;2023-06-14T06:15:26;8.65;;;3.45;;
10007;SDS011;5043;41.766;26.204;2023-06-14T06:17:51;4.68;;;3.20;;
10007;SDS011;5043;41.766;26.204;2023-06-14T06:20:17;4.95;;;2.72;;
10007;SDS011;5043;41.766;26.204;2023-06-14T06:22:42;5.97;;;2.70;;
10007;SDS011;5043;41.766;26.204;2023-06-14T06:25:08;3.80;;;2.47;;
10007;SDS011;5043;41.766;26.204;2023-06-14T06:27:34;4.47;;;2.90;;
10007;SDS011;5043;41.766;26.204;2023-06-14T06:30:02;2.50;;;2.30;;
10007;SDS011;5043;41.766;26.204;2023-06-14T06:32:28;3.97;;;2.13;;
10007;SDS011;5043;41.766;26.204;2023-06-14T06:34:53;3.97;;;2.65;;
10007;SDS011;5043;41.766;26.204;2023-06-14T06:37:19;4.00;;;2.90;;
10007;SDS011;5043;41.766;26.204;2023-06-14T06:39:44;2.92;;;2.60;;
10007;SDS011;5043;41.766;26.204;2023-06-14T06:42:10;3.10;;;2.38;;
10007;SDS011;5043;41.766;26.204;2023-06-14T06:44:36;2.95;;;2.58;;
10007;SDS011;5043;41.766;26.204;2023-06-14T06:47:01;3.78;;;3.22;;
10007;SDS011;5043;41.766;26.204;2023-06-14T06:49:27;2.70;;;2.50;;
10007;SDS011;5043;41.766;26.204;2023-06-14T06:51:59;4.18;;;2.45;;
10007;SDS011;5043;41.766;26.204;2023-06-14T06:54:29;2.50;;;2.05;;
10007;SDS011;5043;41.766;26.204;2023-06-14T06:56:55;2.58;;;2.33;;
10007;SDS011;5043;41.766;26.204;2023-06-14T06:59:21;2.78;;;2.00;;
10007;SDS011;5043;41.766;26.204;2023-06-14T07:01:47;1.95;;;1.80;;
10007;SDS011;5043;41.766;26.204;2023-06-14T07:04:12;3.42;;;2.95;;
10007;SDS011;5043;41.766;26.204;2023-06-14T07:06:38;4.95;;;3.50;;
10007;SDS011;5043;41.766;26.204;2023-06-14T07:09:04;2.55;;;1.98;;
10007;SDS011;5043;41.766;26.204;2023-06-14T07:11:33;2.40;;;2.20;;
10007;SDS011;5043;41.766;26.204;2023-06-14T07:13:58;2.03;;;1.90;;
10007;SDS011;5043;41.766;26.204;2023-06-14T07:16:23;2.10;;;2.00;;
10007;SDS011;5043;41.766;26.204;2023-06-14T07:18:49;1.88;;;1.77;;
10007;SDS011;5043;41.766;26.204;2023-06-14T07:21:14;2.75;;;2.03;;
10007;SDS011;5043;41.766;26.204;2023-06-14T07:23:40;2.03;;;1.70;;
10007;SDS011;5043;41.766;26.204;2023-06-14T07:26:05;3.85;;;2.08;;
10007;SDS011;5043;41.766;26.204;2023-06-14T07:28:31;3.13;;;2.30;;
10007;SDS011;5043;41.766;26.204;2023-06-14T07:30:56;1.70;;;1.60;;
10007;SDS011;5043;41.766;26.204;2023-06-14T07:33:22;2.67;;;2.33;;
10007;SDS011;5043;41.766;26.204;2023-06-14T07:35:47;1.63;;;1.45;;
10007;SDS011;5043;41.766;26.204;2023-06-14T07:38:14;2.30;;;2.10;;
10007;SDS011;5043;41.766;26.204;2023-06-14T07:40:39;6.50;;;1.92;;
10007;SDS011;5043;41.766;26.204;2023-06-14T07:43:05;1.90;;;1.70;;
10007;SDS011;5043;41.766;26.204;2023-06-14T07:45:30;2.10;;;2.00;;
10007;SDS011;5043;41.766;26.204;2023-06-14T07:47:56;2.15;;;1.83;;
10007;SDS011;5043;41.766;26.204;2023-06-14T07:50:21;1.92;;;1.73;;
10007;SDS011;5043;41.766;26.204;2023-06-14T07:52:47;2.65;;;2.08;;
10007;SDS011;5043;41.766;26.204;2023-06-14T07:55:13;2.83;;;1.77;;
10007;SDS011;5043;41.766;26.204;2023-06-14T07:57:40;3.33;;;1.70;;
10007;SDS011;5043;41.766;26.204;2023-06-14T08:00:05;2.10;;;1.90;;
10007;SDS011;5043;41.766;26.204;2023-06-14T08:02:31;4.35;;;1.77;;
10007;SDS011;5043;41.766;26.204;2023-06-14T08:04:57;2.50;;;1.52;;
10007;SDS011;5043;41.766;26.204;2023-06-14T08:07:23;2.45;;;1.77;;
10007;SDS011;5043;41.766;26.204;2023-06-14T08:09:49;4.07;;;1.88;;
10007;SDS011;5043;41.766;26.204;2023-06-14T08:12:14;1.50;;;1.40;;
10007;SDS011;5043;41.766;26.204;2023-06-14T08:14:41;4.22;;;1.80;;
10007;SDS011;5043;41.766;26.204;2023-06-14T08:17:07;5.13;;;2.10;;
10007;SDS011;5043;41.766;26.204;2023-06-14T08:19:33;3.25;;;2.17;;
10007;SDS011;5043;41.766;26.204;2023-06-14T08:21:58;1.80;;;1.70;;
10007;SDS011;5043;41.766;26.204;2023-06-14T08:24:25;5.15;;;1.92;;
10007;SDS011;5043;41.766;26.204;2023-06-14T08:26:52;4.93;;;1.80;;
10007;SDS011;5043;41.766;26.204;2023-06-14T08:29:21;1.88;;;1.70;;
10007;SDS011;5043;41.766;26.204;2023-06-14T08:31:47;3.70;;;1.83;;
10007;SDS011;5043;41.766;26.204;2023-06-14T08:34:12;1.73;;;1.60;;
10007;SDS011;5043;41.766;26.204;2023-06-14T08:36:38;9.55;;;1.77;;
10007;SDS011;5043;41.766;26.204;2023-06-14T08:39:03;1.70;;;1.60;;
10007;SDS011;5043;41.766;26.204;2023-06-14T08:41:29;4.10;;;1.60;;
10007;SDS011;5043;41.766;26.204;2023-06-14T08:43:55;9.10;;;1.80;;
10007;SDS011;5043;41.766;26.204;2023-06-14T08:46:21;5.03;;;1.60;;
10007;SDS011;5043;41.766;26.204;2023-06-14T08:48:52;2.33;;;1.80;;
10007;SDS011;5043;41.766;26.204;2023-06-14T08:51:22;4.45;;;1.60;;
10007;SDS011;5043;41.766;26.204;2023-06-14T08:53:55;2.25;;;1.80;;
10007;SDS011;5043;41.766;26.204;2023-06-14T08:56:23;5.43;;;1.70;;
10007;SDS011;5043;41.766;26.204;2023-06-14T08:58:51;1.75;;;1.60;;
10007;SDS011;5043;41.766;26.204;2023-06-14T09:01:17;2.63;;;1.63;;
10007;SDS011;5043;41.766;26.204;2023-06-14T09:03:44;5.28;;;1.40;;
10007;SDS011;5043;41.766;26.204;2023-06-14T09:06:09;8.63;;;2.75;;
10007;SDS011;5043;41.766;26.204;2023-06-14T09:08:47;2.53;;;1.92;;
10007;SDS011;5043;41.766;26.204;2023-06-14T09:11:14;1.80;;;1.70;;
10007;SDS011;5043;41.766;26.204;2023-06-14T09:13:41;2.55;;;2.10;;
10007;SDS011;5043;41.766;26.204;2023-06-14T09:16:07;1.85;;;1.75;;
10007;SDS011;5043;41.766;26.204;2023-06-14T09:18:36;1.77;;;1.67;;
10007;SDS011;5043;41.766;26.204;2023-06-14T09:21:15;4.00;;;1.80;;
10007;SDS011;5043;41.766;26.204;2023-06-14T09:23:42;2.78;;;1.70;;
10007;SDS011;5043;41.766;26.204;2023-06-14T09:26:10;1.95;;;1.75;;
10007;SDS011;5043;41.766;26.204;2023-06-14T09:28:43;2.00;;;1.90;;
10007;SDS011;5043;41.766;26.204;2023-06-14T09:31:13;2.92;;;1.55;;
10007;SDS011;5043;41.766;26.204;2023-06-14T09:33:43;2.00;;;1.67;;
10007;SDS011;5043;41.766;26.204;2023-06-14T09:36:14;1.75;;;1.65;;
10007;SDS011;5043;41.766;26.204;2023-06-14T09:41:38;3.50;;;1.90;;
10007;SDS011;5043;41.766;26.204;2023-06-14T09:44:07;1.80;;;1.70;;
10007;SDS011;5043;41.766;26.204;2023-06-14T09:46:35;1.77;;;1.63;;
10007;SDS011;5043;41.766;26.204;2023-06-14T09:49:05;1.70;;;1.60;;
10007;SDS011;5043;41.766;26.204;2023-06-14T09:51:31;2.55;;;1.92;;
10007;SDS011;5043;41.766;26.204;2023-06-14T09:53:59;1.70;;;1.60;;
10007;SDS011;5043;41.766;26.204;2023-06-14T09:56:29;2.35;;;2.15;;
10007;SDS011;5043;41.766;26.204;2023-06-14T09:59:00;3.60;;;1.70;;
10007;SDS011;5043;41.766;26.204;2023-06-14T10:01:30;1.23;;;1.23;;
10007;SDS011;5043;41.766;26.204;2023-06-14T10:04:03;2.13;;;1.80;;
10007;SDS011;5043;41.766;26.204;2023-06-14T10:06:31;1.90;;;1.80;;
10007;SDS011;5043;41.766;26.204;2023-06-14T10:09:02;3.90;;;2.00;;
10007;SDS011;5043;41.766;26.204;2023-06-14T10:11:31;3.17;;;1.60;;
10007;SDS011;5043;41.766;26.204;2023-06-14T10:13:57;2.40;;;1.75;;
10007;SDS011;5043;41.766;26.204;2023-06-14T10:24:29;1.33;;;1.20;;
10007;SDS011;5043;41.766;26.204;2023-06-14T10:26:58;1.60;;;1.42;;
10007;SDS011;5043;41.766;26.204;2023-06-14T10:29:27;3.17;;;1.60;;
10007;SDS011;5043;41.766;26.204;2023-06-14T10:31:57;3.75;;;1.50;;
10007;SDS011;5043;41.766;26.204;2023-06-14T10:34:30;2.17;;;1.70;;
10007;SDS011;5043;41.766;26.204;2023-06-14T10:37:03;2.22;;;1.55;;
10007;SDS011;5043;41.766;26.204;2023-06-14T10:39:39;2.78;;;1.80;;
10007;SDS011;5043;41.766;26.204;2023-06-14T10:42:06;3.92;;;1.90;;
10007;SDS011;5043;41.766;26.204;2023-06-14T10:44:54;2.13;;;1.75;;
10007;SDS011;5043;41.766;26.204;2023-06-14T10:47:31;3.42;;;1.40;;
10007;SDS011;5043;41.766;26.204;2023-06-14T10:52:28;1.88;;;1.77;;
10007;SDS011;5043;41.766;26.204;2023-06-14T10:57:44;1.77;;;1.67;;
10007;SDS011;5043;41.766;26.204;2023-06-14T11:00:17;3.47;;;1.70;;
10007;SDS011;5043;41.766;26.204;2023-06-14T11:10:52;1.88;;;1.77;;
10007;SDS011;5043;41.766;26.204;2023-06-14T11:13:24;2.00;;;1.60;;
10007;SDS011;5043;41.766;26.204;2023-06-14T11:15:50;4.05;;;1.90;;
10007;SDS011;5043;41.766;26.204;2023-06-14T11:18:18;3.00;;;1.55;;
10007;SDS011;5043;41.766;26.204;2023-06-14T11:20:45;1.10;;;1.10;;
10007;SDS011;5043;41.766;26.204;2023-06-14T11:23:12;2.72;;;1.77;;
10007;SDS011;5043;41.766;26.204;2023-06-14T11:25:37;2.13;;;1.67;;
10007;SDS011;5043;41.766;26.204;2023-06-14T11:28:03;1.70;;;1.60;;
10007;SDS011;5043;41.766;26.204;2023-06-14T11:30:29;4.20;;;1.60;;
10007;SDS011;5043;41.766;26.204;2023-06-14T11:32:55;2.03;;;1.80;;
10007;SDS011;5043;41.766;26.204;2023-06-14T11:35:24;1.55;;;1.45;;
10007;SDS011;5043;41.766;26.204;2023-06-14T11:37:53;1.33;;;1.23;;
10007;SDS011;5043;41.766;26.204;2023-06-14T11:40:22;3.35;;;1.75;;
10007;SDS011;5043;41.766;26.204;2023-06-14T11:42:49;2.00;;;1.80;;
10007;SDS011;5043;41.766;26.204;2023-06-14T11:45:14;3.28;;;1.50;;
10007;SDS011;5043;41.766;26.204;2023-06-14T11:47:40;1.70;;;1.60;;
10007;SDS011;5043;41.766;26.204;2023-06-14T11:50:07;1.58;;;1.48;;
10007;SDS011;5043;41.766;26.204;2023-06-14T11:52:34;1.70;;;1.60;;
10007;SDS011;5043;41.766;26.204;2023-06-14T11:55:01;2.22;;;1.55;;
10007;SDS011;5043;41.766;26.204;2023-06-14T11:57:30;1.45;;;1.35;;
10007;SDS011;5043;41.766;26.204;2023-06-14T11:59:58;1.55;;;1.45;;
10007;SDS011;5043;41.766;26.204;2023-06-14T12:02:24;2.25;;;1.58;;
10007;SDS011;5043;41.766;26.204;2023-06-14T12:04:50;1.67;;;1.58;;
10007;SDS011;5043;41.766;26.204;2023-06-14T12:07:16;1.88;;;1.55;;
10007;SDS011;5043;41.766;26.204;2023-06-14T12:12:22;2.58;;;1.65;;
10007;SDS011;5043;41.766;26.204;2023-06-14T12:14:50;2.90;;;1.60;;
10007;SDS011;5043;41.766;26.204;2023-06-14T12:17:16;2.42;;;1.60;;
10007;SDS011;5043;41.766;26.204;2023-06-14T12:19:43;1.73;;;1.63;;
10007;SDS011;5043;41.766;26.204;2023-06-14T12:22:09;1.75;;;1.65;;
10007;SDS011;5043;41.766;26.204;2023-06-14T12:24:35;2.03;;;1.83;;
10007;SDS011;5043;41.766;26.204;2023-06-14T12:27:01;1.50;;;1.40;;
10007;SDS011;5043;41.766;26.204;2023-06-14T12:29:29;2.80;;;1.48;;
10007;SDS011;5043;41.766;26.204;2023-06-14T12:31:55;4.03;;;1.60;;
10007;SDS011;5043;41.766;26.204;2023-06-14T12:34:24;4.38;;;1.92;;
10007;SDS011;5043;41.766;26.204;2023-06-14T12:36:51;1.67;;;1.58;;
10007;SDS011;5043;41.766;26.204;2023-06-14T12:39:18;1.92;;;1.70;;
10007;SDS011;5043;41.766;26.204;2023-06-14T12:41:43;4.05;;;1.80;;
10007;SDS011;5043;41.766;26.204;2023-06-14T12:44:09;1.60;;;1.50;;
10007;SDS011;5043;41.766;26.204;2023-06-14T12:46:36;4.90;;;1.60;;
10007;SDS011;5043;41.766;26.204;2023-06-14T12:49:04;1.67;;;1.58;;
10007;SDS011;5043;41.766;26.204;2023-06-14T12:51:30;1.60;;;1.40;;
10007;SDS011;5043;41.766;26.204;2023-06-14T12:53:56;2.05;;;1.60;;
10007;SDS011;5043;41.766;26.204;2023-06-14T12:56:21;1.80;;;1.60;;
10007;SDS011;5043;41.766;26.204;2023-06-14T12:58:47;3.05;;;1.52;;
10007;SDS011;5043;41.766;26.204;2023-06-14T13:01:12;1.60;;;1.50;;
10007;SDS011;5043;41.766;26.204;2023-06-14T13:03:37;1.75;;;1.65;;
10007;SDS011;5043;41.766;26.204;2023-06-14T13:06:03;2.08;;;1.70;;
10007;SDS011;5043;41.766;26.204;2023-06-14T13:08:30;2.22;;;1.42;;
10007;SDS011;5043;41.766;26.204;2023-06-14T13:10:56;1.65;;;1.55;;
10007;SDS011;5043;41.766;26.204;2023-06-14T13:13:22;2.60;;;1.73;;
10007;SDS011;5043;41.766;26.204;2023-06-14T13:15:48;2.25;;;1.80;;
10007;SDS011;5043;41.766;26.204;2023-06-14T13:18:14;2.97;;;1.60;;
10007;SDS011;5043;41.766;26.204;2023-06-14T13:20:40;1.75;;;1.50;;
10007;SDS011;5043;41.766;26.204;2023-06-14T13:23:06;2.35;;;1.60;;
10007;SDS011;5043;41.766;26.204;2023-06-14T13:25:33;1.55;;;1.45;;
10007;SDS011;5043;41.766;26.204;2023-06-14T13:27:59;1.80;;;1.65;;
10007;SDS011;5043;41.766;26.204;2023-06-14T13:30:25;2.22;;;1.63;;
10007;SDS011;5043;41.766;26.204;2023-06-14T13:32:50;3.25;;;1.55;;
10007;SDS011;5043;41.766;26.204;2023-06-14T13:35:17;2.38;;;1.75;;
10007;SDS011;5043;41.766;26.204;2023-06-14T13:37:43;3.72;;;1.40;;
10007;SDS011;5043;41.766;26.204;2023-06-14T13:40:10;3.63;;;1.70;;
10007;SDS011;5043;41.766;26.204;2023-06-14T13:42:36;2.03;;;1.80;;
10007;SDS011;5043;41.766;26.204;2023-06-14T13:45:03;2.00;;;1.90;;
10007;SDS011;5043;41.766;26.204;2023-06-14T13:47:30;4.25;;;2.20;;
10007;SDS011;5043;41.766;26.204;2023-06-14T13:49:56;2.03;;;1.90;;
10007;SDS011;5043;41.766;26.204;2023-06-14T13:52:21;2.53;;;1.92;;
10007;SDS011;5043;41.766;26.204;2023-06-14T13:54:47;2.20;;;1.60;;
10007;SDS011;5043;41.766;26.204;2023-06-14T13:57:13;5.75;;;1.95;;
10007;SDS011;5043;41.766;26.204;2023-06-14T13:59:39;2.70;;;1.98;;
10007;SDS011;5043;41.766;26.204;2023-06-14T14:02:05;2.45;;;2.00;;
10007;SDS011;5043;41.766;26.204;2023-06-14T14:04:31;1.90;;;1.80;;
10007;SDS011;5043;41.766;26.204;2023-06-14T14:06:57;4.70;;;2.20;;
10007;SDS011;5043;41.766;26.204;2023-06-14T14:09:22;2.65;;;2.05;;
10007;SDS011;5043;41.766;26.204;2023-06-14T14:11:48;2.00;;;1.90;;
10007;SDS011;5043;41.766;26.204;2023-06-14T14:14:14;1.95;;;1.85;;
10007;SDS011;5043;41.766;26.204;2023-06-14T14:16:40;2.90;;;2.05;;
10007;SDS011;5043;41.766;26.204;2023-06-14T14:19:06;2.25;;;2.05;;
10007;SDS011;5043;41.766;26.204;2023-06-14T14:21:32;1.80;;;1.70;;
10007;SDS011;5043;41.766;26.204;2023-06-14T14:23:58;2.13;;;1.92;;
10007;SDS011;5043;41.766;26.204;2023-06-14T14:26:24;1.70;;;1.60;;
10007;SDS011;5043;41.766;26.204;2023-06-14T14:28:50;1.98;;;1.88;;
10007;SDS011;5043;41.766;26.204;2023-06-14T14:31:16;7.50;;;1.60;;
10007;SDS011;5043;41.766;26.204;2023-06-14T14:33:42;1.90;;;1.55;;
10007;SDS011;5043;41.766;26.204;2023-06-14T14:36:13;2.75;;;2.05;;
10007;SDS011;5043;41.766;26.204;2023-06-14T14:38:39;2.78;;;1.85;;
10007;SDS011;5043;41.766;26.204;2023-06-14T14:41:05;1.85;;;1.65;;
10007;SDS011;5043;41.766;26.204;2023-06-14T14:43:31;2.42;;;2.13;;
10007;SDS011;5043;41.766;26.204;2023-06-14T14:45:57;4.43;;;1.98;;
10007;SDS011;5043;41.766;26.204;2023-06-14T14:48:23;1.70;;;1.60;;
10007;SDS011;5043;41.766;26.204;2023-06-14T14:50:48;2.08;;;1.88;;
10007;SDS011;5043;41.766;26.204;2023-06-14T14:53:13;2.80;;;1.80;;
10007;SDS011;5043;41.766;26.204;2023-06-14T14:55:42;1.65;;;1.50;;
10007;SDS011;5043;41.766;26.204;2023-06-14T14:58:08;2.20;;;1.80;;
10007;SDS011;5043;41.766;26.204;2023-06-14T15:00:33;3.13;;;1.60;;
10007;SDS011;5043;41.766;26.204;2023-06-14T15:02:59;2.40;;;1.90;;
10007;SDS011;5043;41.766;26.204;2023-06-14T15:05:25;2.15;;;1.95;;
10007;SDS011;5043;41.766;26.204;2023-06-14T15:07:51;3.72;;;1.58;;
10007;SDS011;5043;41.766;26.204;2023-06-14T15:10:16;2.80;;;1.65;;
10007;SDS011;5043;41.766;26.204;2023-06-14T15:12:42;1.98;;;1.65;;
10007;SDS011;5043;41.766;26.204;2023-06-14T15:15:07;2.35;;;1.80;;
10007;SDS011;5043;41.766;26.204;2023-06-14T15:17:34;1.60;;;1.50;;
10007;SDS011;5043;41.766;26.204;2023-06-14T15:20:00;1.60;;;1.50;;